Time;durP1;ratioP1;P1;durP2;ratioP2;P2;SDS_P1;SDS_P2;PMS_P1;PMS_P2;Temp;Humidity;BMP_temperature;BMP_pressure;BME280_temperature;BME280_humidity;BME280_pressure;Samples;Min_cycle;Max_cycle;Signal;HPM_P1;HPM_P2
2022/04/30 00:00:35;;;;;;;26.03;16.37;;;;;;;15.55;100.00;99667.38;4993858;28;20199;-91
2022/04/30 00:03:01;;;;;;;28.13;15.33;;;;;;;16.02;100.00;99735.94;5009262;28;20191;-90
2022/04/30 00:05:32;;;;;;;24.70;15.93;;;;;;;16.07;100.00;99720.78;4995576;28;20184;-91
2022/04/30 00:07:58;;;;;;;24.63;15.70;;;;;;;15.35;100.00;99615.78;4995510;28;20172;-91
2022/04/30 00:10:24;;;;;;;24.47;15.77;;;;;;;14.82;100.00;99522.47;4995234;28;20603;-92
2022/04/30 00:12:49;;;;;;;25.37;16.93;;;;;;;15.62;99.45;99647.22;5000234;28;20152;-90
2022/04/30 00:15:15;;;;;;;25.57;16.00;;;;;;;14.11;98.98;99387.91;5000153;28;20156;-88
2022/04/30 00:17:41;;;;;;;23.73;15.60;;;;;;;16.09;98.68;99753.19;5013333;28;20183;-89
2022/04/30 00:20:07;;;;;;;27.17;16.07;;;;;;;15.38;98.24;99626.94;4979068;28;20164;-87
2022/04/30 00:22:33;;;;;;;24.63;15.33;;;;;;;15.34;97.98;99626.81;4974651;28;20235;-88
2022/04/30 00:24:59;;;;;;;26.93;16.57;;;;;;;14.51;96.13;99481.63;4976142;28;20182;-87
2022/04/30 00:27:24;;;;;;;26.10;16.70;;;;;;;16.07;94.66;99736.09;4975705;28;20196;-88
2022/04/30 00:29:50;;;;;;;27.83;16.10;;;;;;;12.62;95.19;99171.38;4974502;28;20168;-87
2022/04/30 00:32:16;;;;;;;27.73;16.93;;;;;;;13.70;94.43;99340.00;4977360;28;20167;-87
2022/04/30 00:34:42;;;;;;;25.83;16.60;;;;;;;15.90;95.26;99725.41;4991173;28;20164;-87
2022/04/30 00:37:07;;;;;;;28.30;16.13;;;;;;;15.96;94.57;99725.56;4974757;28;20180;-88
2022/04/30 00:39:34;;;;;;;27.80;16.60;;;;;;;14.45;93.62;99467.03;4976418;28;20172;-88
2022/04/30 00:42:00;;;;;;;29.90;18.00;;;;;;;15.72;93.41;99695.13;4974921;28;20261;-87
2022/04/30 00:44:25;;;;;;;32.20;18.23;;;;;;;14.01;93.92;99431.69;4990406;28;20258;-87
2022/04/30 00:46:51;;;;;;;29.43;18.30;;;;;;;13.02;94.38;99310.69;4994914;28;20167;-88
2022/04/30 00:49:16;;;;;;;27.83;17.57;;;;;;;12.82;95.15;99244.00;4994290;28;20249;-88
2022/04/30 00:51:45;;;;;;;29.10;17.10;;;;;;;14.56;94.71;99521.69;4997054;28;20168;-88
2022/04/30 00:54:13;;;;;;;29.10;17.30;;;;;;;15.59;94.49;99671.78;4996934;28;20174;-88
2022/04/30 00:56:44;;;;;;;27.93;16.93;;;;;;;15.88;94.17;99719.38;4998410;28;20177;-88
2022/04/30 00:59:17;;;;;;;28.13;17.00;;;;;;;13.24;95.13;99264.81;4996114;28;20199;-87
2022/04/30 01:01:43;;;;;;;26.83;17.07;;;;;;;15.62;98.70;99721.22;4997428;28;20199;-88
2022/04/30 01:04:09;;;;;;;27.50;17.27;;;;;;;13.41;99.15;99324.69;4995292;28;20167;-88
2022/04/30 01:06:49;;;;;;;30.50;18.27;;;;;;;14.90;100.00;99606.81;4995136;28;20620;-87
2022/04/30 01:09:17;;;;;;;29.77;19.20;;;;;;;12.92;100.00;99278.19;4995438;28;20202;-88
2022/04/30 01:11:44;;;;;;;28.83;18.00;;;;;;;15.21;100.00;99652.78;4996552;28;20152;-88
2022/04/30 01:14:10;;;;;;;30.17;18.53;;;;;;;13.68;100.00;99444.22;4996395;28;20181;-88
2022/04/30 01:16:36;;;;;;;29.70;18.00;;;;;;;13.14;100.00;99298.41;4997072;28;20164;-88
2022/04/30 01:19:02;;;;;;;32.67;18.83;;;;;;;13.11;100.00;99313.56;4993648;28;20179;-86
2022/04/30 01:21:31;;;;;;;31.97;18.17;;;;;;;15.12;100.00;99653.38;4995635;28;20176;-86
2022/04/30 01:23:57;;;;;;;32.47;19.03;;;;;;;15.48;100.00;99704.66;4996311;28;20156;-87
2022/04/30 01:26:26;;;;;;;30.70;18.03;;;;;;;14.38;100.00;99503.34;4996860;28;20167;-87
2022/04/30 01:28:53;;;;;;;31.77;18.73;;;;;;;14.34;100.00;99508.31;4997284;28;20239;-88
2022/04/30 01:39:31;;;;;;;32.00;18.77;;;;;;;15.13;100.00;99636.41;4993631;28;20178;-87
2022/04/30 01:42:03;;;;;;;31.97;19.53;;;;;;;14.97;100.00;99604.47;4993451;28;20187;-87
2022/04/30 01:44:29;;;;;;;30.80;18.73;;;;;;;14.31;100.00;99478.44;4994076;28;20171;-87
2022/04/30 01:46:55;;;;;;;30.63;18.83;;;;;;;14.35;100.00;99475.22;4994523;28;20316;-87
2022/04/30 01:49:20;;;;;;;31.73;18.23;;;;;;;14.33;100.00;99483.63;4992547;28;20246;-87
2022/04/30 01:51:50;;;;;;;30.97;18.60;;;;;;;13.38;100.00;99338.97;4993855;28;20691;-88
2022/04/30 01:54:16;;;;;;;36.80;19.47;;;;;;;12.37;100.00;99168.84;4993153;28;20171;-88
2022/04/30 01:56:41;;;;;;;33.07;19.63;;;;;;;14.66;100.00;99571.25;4994119;28;20175;-87
2022/04/30 01:59:06;;;;;;;30.57;18.70;;;;;;;13.36;100.00;99369.47;5008764;28;20172;-87
2022/04/30 02:01:33;;;;;;;30.40;18.60;;;;;;;14.55;100.00;99563.31;4993880;28;20278;-87
2022/04/30 02:03:59;;;;;;;33.77;19.83;;;;;;;13.50;100.00;99398.75;4991979;28;20591;-87
2022/04/30 02:06:24;;;;;;;33.37;19.53;;;;;;;14.41;100.00;99548.41;5010075;28;20163;-87
2022/04/30 02:08:50;;;;;;;31.67;19.60;;;;;;;13.31;100.00;99353.19;4994627;28;20198;-87
2022/04/30 02:11:16;;;;;;;33.73;18.57;;;;;;;13.68;100.00;99423.03;5012219;28;20162;-88
2022/04/30 02:13:52;;;;;;;32.90;20.17;;;;;;;15.10;100.00;99684.75;4992451;28;20549;-88
2022/04/30 02:16:21;;;;;;;34.03;20.03;;;;;;;15.11;100.00;99689.03;5004438;28;20164;-89
2022/04/30 02:18:47;;;;;;;35.63;19.73;;;;;;;13.64;100.00;99403.41;4973478;28;20222;-87
2022/04/30 02:21:16;;;;;;;34.40;19.60;;;;;;;13.60;100.00;99428.72;4973318;28;20196;-87
2022/04/30 02:23:42;;;;;;;35.43;20.83;;;;;;;13.89;100.00;99444.06;4977324;28;20210;-89
2022/04/30 02:26:09;;;;;;;33.87;20.20;;;;;;;13.20;100.00;99354.53;4993583;28;20155;-86
2022/04/30 02:28:36;;;;;;;31.87;19.53;;;;;;;13.47;100.00;99408.81;4993004;28;20159;-88
2022/04/30 02:31:02;;;;;;;32.77;20.60;;;;;;;13.66;100.00;99462.81;4993730;28;20214;-88
2022/04/30 02:33:27;;;;;;;34.10;20.40;;;;;;;13.09;100.00;99339.75;5016894;28;20163;-88
2022/04/30 02:35:53;;;;;;;34.13;18.97;;;;;;;13.14;100.00;99341.63;5017525;28;20160;-88
2022/04/30 02:38:19;;;;;;;35.13;21.17;;;;;;;13.83;100.00;99454.03;5001953;28;20199;-88
2022/04/30 02:40:45;;;;;;;34.40;19.93;;;;;;;13.08;100.00;99304.97;4994155;28;20187;-89
2022/04/30 02:43:15;;;;;;;31.90;19.93;;;;;;;14.01;100.00;99449.50;4991811;28;20170;-88
2022/04/30 02:45:42;;;;;;;30.93;20.00;;;;;;;14.45;100.00;99532.41;4995215;28;20169;-87
2022/04/30 02:48:09;;;;;;;34.10;19.90;;;;;;;14.61;100.00;99575.38;4998653;28;20155;-87
2022/04/30 02:50:36;;;;;;;30.33;19.27;;;;;;;14.10;100.00;99447.25;4996543;28;20167;-88
2022/04/30 02:53:03;;;;;;;31.73;19.57;;;;;;;14.20;100.00;99490.03;4999007;28;20151;-88
2022/04/30 02:55:28;;;;;;;33.13;20.00;;;;;;;15.44;100.00;99690.03;4988863;28;20176;-87
2022/04/30 03:00:42;;;;;;;31.30;20.70;;;;;;;15.36;100.00;99700.00;4978003;28;20222;-88
2022/04/30 03:03:09;;;;;;;32.67;19.70;;;;;;;14.41;100.00;99540.75;4977152;28;20161;-88
2022/04/30 03:05:40;;;;;;;33.30;20.30;;;;;;;13.47;100.00;99367.25;4978137;28;20164;-87
2022/04/30 03:08:12;;;;;;;33.03;20.30;;;;;;;12.91;100.00;99314.59;4977644;28;20152;-88
2022/04/30 03:10:48;;;;;;;31.97;20.37;;;;;;;14.38;100.00;99564.47;4993797;28;20168;-88
2022/04/30 03:13:14;;;;;;;32.23;20.40;;;;;;;13.12;100.00;99327.13;4977041;28;20195;-87
2022/04/30 03:15:45;;;;;;;35.97;20.83;;;;;;;13.99;100.00;99452.03;4989301;28;20171;-88
2022/04/30 03:23:41;;;;;;;33.43;20.63;;;;;;;15.20;100.00;99687.63;4997042;28;20233;-88
2022/04/30 03:26:10;;;;;;;33.90;21.43;;;;;;;15.32;100.00;99689.69;5000128;28;20246;-86
2022/04/30 03:28:40;;;;;;;32.53;20.67;;;;;;;14.18;100.00;99530.69;4997460;28;20655;-89
2022/04/30 03:31:09;;;;;;;30.90;20.73;;;;;;;13.74;100.00;99457.16;4995140;28;20212;-87
2022/04/30 03:33:35;;;;;;;33.17;20.70;;;;;;;13.64;100.00;99416.13;4996804;28;20215;-87
2022/04/30 03:36:02;;;;;;;34.63;20.53;;;;;;;15.14;100.00;99678.91;4996980;28;20214;-88
2022/04/30 03:38:27;;;;;;;35.33;21.30;;;;;;;15.11;100.00;99699.22;5011671;28;20170;-87
2022/04/30 03:40:53;;;;;;;35.40;21.20;;;;;;;13.51;100.00;99443.69;4997187;28;20195;-87
2022/04/30 03:43:18;;;;;;;39.90;22.27;;;;;;;13.49;100.00;99459.72;4995082;28;20187;-88
2022/04/30 03:45:44;;;;;;;34.17;21.83;;;;;;;12.71;100.00;99357.09;4996256;28;20164;-87
2022/04/30 03:48:10;;;;;;;36.83;21.97;;;;;;;14.76;100.00;99695.59;4995382;28;20163;-87
2022/04/30 03:50:35;;;;;;;35.00;22.00;;;;;;;12.36;100.00;99292.38;4999343;28;20167;-88
2022/04/30 03:53:01;;;;;;;33.40;21.90;;;;;;;13.99;100.00;99570.78;4999380;28;20175;-88
2022/04/30 03:55:27;;;;;;;37.17;23.30;;;;;;;12.10;100.00;99252.53;4998171;28;20206;-87
2022/04/30 03:57:55;;;;;;;35.13;23.10;;;;;;;14.68;100.00;99689.38;4997984;28;20246;-87
2022/04/30 04:00:21;;;;;;;34.77;23.67;;;;;;;13.84;100.00;99588.97;4997839;28;20167;-88
2022/04/30 04:02:47;;;;;;;35.80;23.17;;;;;;;13.35;100.00;99527.06;5005266;28;20192;-88
2022/04/30 04:05:13;;;;;;;35.27;24.13;;;;;;;11.06;100.00;99115.22;4996027;28;20163;-88
2022/04/30 04:07:43;;;;;;;35.10;24.27;;;;;;;12.56;100.00;99391.22;4995616;28;20243;-88
2022/04/30 04:10:09;;;;;;;35.67;24.77;;;;;;;14.60;100.00;99703.56;4995530;28;20258;-88
2022/04/30 04:12:37;;;;;;;40.23;24.90;;;;;;;14.15;100.00;99618.84;4993835;28;20622;-87
2022/04/30 04:17:50;;;;;;;38.67;24.37;;;;;;;13.32;100.00;99479.50;4995729;28;20175;-88
2022/04/30 04:20:24;;;;;;;35.13;23.83;;;;;;;13.12;100.00;99466.94;4995388;28;20167;-88
2022/04/30 04:22:50;;;;;;;37.43;23.40;;;;;;;12.92;100.00;99423.88;4996520;28;20219;-88
2022/04/30 04:27:59;;;;;;;35.60;23.97;;;;;;;13.13;100.00;99426.31;4996415;28;20213;-87
2022/04/30 04:30:27;;;;;;;34.77;22.17;;;;;;;13.07;100.00;99428.66;4994537;28;20202;-86
2022/04/30 04:32:53;;;;;;;33.83;22.03;;;;;;;14.33;100.00;99703.53;5014229;28;20183;-87
2022/04/30 04:35:19;;;;;;;32.10;21.83;;;;;;;12.11;100.00;99302.50;4996928;28;20625;-89
2022/04/30 04:37:45;;;;;;;31.20;22.30;;;;;;;14.64;100.00;99728.34;4978092;28;20183;-90
2022/04/30 04:40:12;;;;;;;28.60;20.83;;;;;;;11.66;100.00;99181.59;4995194;28;20199;-89
2022/04/30 04:42:39;;;;;;;33.90;22.20;;;;;;;12.92;100.00;99430.63;4978985;28;20202;-89
2022/04/30 04:45:05;;;;;;;32.67;21.20;;;;;;;14.41;100.00;99719.06;4996386;28;20171;-90
2022/04/30 04:47:31;;;;;;;29.03;20.70;;;;;;;13.34;100.00;99494.81;4996279;28;20175;-90
2022/04/30 04:49:57;;;;;;;29.90;20.47;;;;;;;13.17;100.00;99440.84;4995331;28;20199;-89
2022/04/30 04:52:22;;;;;;;30.67;20.13;;;;;;;12.74;100.00;99336.88;5044096;22;20216;-88
2022/04/30 04:54:48;;;;;;;26.90;19.53;;;;;;;15.04;100.00;99759.38;5019179;28;20175;-89
2022/04/30 04:57:14;;;;;;;33.97;21.03;;;;;;;13.19;100.00;99418.88;5012058;28;20175;-93
2022/04/30 04:59:40;;;;;;;31.63;21.17;;;;;;;12.64;100.00;99355.13;4999985;28;20179;-89
2022/04/30 05:02:05;;;;;;;31.73;21.00;;;;;;;13.99;100.00;99542.78;4998106;28;20254;-90
2022/04/30 05:04:32;;;;;;;30.37;19.80;;;;;;;15.13;100.00;99749.47;5000390;28;20172;-88
2022/04/30 05:06:59;;;;;;;29.30;21.23;;;;;;;14.25;100.00;99541.94;4997001;28;20525;-89
2022/04/30 05:09:25;;;;;;;30.33;19.37;;;;;;;13.46;100.00;99403.66;4995835;28;20250;-90
2022/04/30 05:11:52;;;;;;;27.77;18.47;;;;;;;14.96;100.00;99610.41;5024365;28;20190;-90
2022/04/30 05:14:18;;;;;;;29.83;19.30;;;;;;;13.71;97.30;99355.28;4997926;28;20168;-90
2022/04/30 05:16:45;;;;;;;28.23;19.47;;;;;;;13.89;95.66;99365.16;5014052;28;20183;-91
2022/04/30 05:19:10;;;;;;;30.87;18.60;;;;;;;15.46;93.89;99599.13;4998233;28;20564;-91
2022/04/30 05:21:36;;;;;;;27.23;18.67;;;;;;;16.44;93.76;99772.00;5003576;28;20214;-92
2022/04/30 05:24:01;;;;;;;26.63;18.63;;;;;;;15.86;93.87;99672.53;5000773;28;20190;-92
2022/04/30 05:26:27;;;;;;;32.70;19.23;;;;;;;13.41;93.63;99268.75;4997829;28;20640;-89
2022/04/30 05:28:52;;;;;;;27.20;18.60;;;;;;;13.60;91.42;99235.41;5000834;28;20163;-91
2022/04/30 05:31:18;;;;;;;30.60;19.10;;;;;;;12.67;91.61;99101.28;4998364;28;20186;-91
2022/04/30 05:33:44;;;;;;;28.07;19.13;;;;;;;13.57;91.24;99270.94;5009232;28;20691;-91
2022/04/30 05:36:10;;;;;;;30.03;19.17;;;;;;;15.06;91.56;99520.59;5006158;28;20168;-91
2022/04/30 05:38:38;;;;;;;28.73;18.60;;;;;;;16.60;91.69;99774.16;5014916;28;20178;-89
2022/04/30 05:41:04;;;;;;;28.00;18.37;;;;;;;13.26;88.90;99145.41;4995421;28;20733;-91
2022/04/30 05:43:29;;;;;;;26.03;18.77;;;;;;;16.11;88.88;99648.50;5027303;28;20182;-88
2022/04/30 05:45:55;;;;;;;28.20;18.30;;;;;;;16.94;88.68;99802.31;4995304;28;20191;-89
2022/04/30 05:48:21;;;;;;;24.87;18.23;;;;;;;14.76;89.29;99439.06;4998253;28;20183;-91
2022/04/30 05:50:46;;;;;;;27.23;18.80;;;;;;;13.90;87.34;99270.22;4995663;28;20191;-88
2022/04/30 05:53:12;;;;;;;24.40;17.60;;;;;;;13.44;88.50;99227.28;4993958;28;20223;-90
2022/04/30 05:55:37;;;;;;;25.17;17.97;;;;;;;15.88;90.80;99638.53;4995543;28;20179;-90
2022/04/30 05:58:03;;;;;;;26.10;17.97;;;;;;;15.24;90.48;99510.06;4995274;28;20710;-90
2022/04/30 06:00:30;;;;;;;27.80;18.17;;;;;;;12.73;91.14;99147.19;5013408;28;20176;-91
2022/04/30 06:02:55;;;;;;;29.50;18.77;;;;;;;14.07;91.91;99369.13;5009442;28;20563;-89
2022/04/30 06:05:26;;;;;;;29.53;18.27;;;;;;;16.58;92.73;99787.72;4995313;28;20171;-91
2022/04/30 06:07:53;;;;;;;27.37;18.30;;;;;;;15.51;92.06;99582.25;5027447;22;20326;-89
2022/04/30 06:10:19;;;;;;;28.67;19.27;;;;;;;16.32;89.74;99674.56;4996686;28;20186;-88
2022/04/30 06:12:44;;;;;;;27.00;18.70;;;;;;;15.01;87.44;99401.47;4994002;28;20168;-90
2022/04/30 06:15:10;;;;;;;26.43;18.83;;;;;;;16.65;85.99;99644.75;5000623;28;20191;-90
2022/04/30 06:17:35;;;;;;;27.53;18.17;;;;;;;16.30;85.33;99557.00;5001782;28;20171;-91
2022/04/30 06:20:01;;;;;;;29.07;18.70;;;;;;;17.58;83.49;99770.53;5004147;28;20206;-91
2022/04/30 06:22:27;;;;;;;25.30;18.07;;;;;;;13.40;83.70;99035.66;4976709;28;20207;-88
2022/04/30 06:24:55;;;;;;;26.73;18.10;;;;;;;16.09;81.14;99456.03;4979397;28;20226;-92
2022/04/30 06:27:21;;;;;;;26.40;17.93;;;;;;;15.05;80.64;99276.66;4977016;28;20592;-89
2022/04/30 06:29:46;;;;;;;26.00;18.50;;;;;;;14.76;78.65;99184.22;4991437;28;20183;-90
2022/04/30 06:32:12;;;;;;;23.73;17.70;;;;;;;14.83;77.40;99172.50;4990186;28;20199;-89
2022/04/30 06:34:39;;;;;;;26.60;17.80;;;;;;;16.85;76.85;99514.81;4994789;28;20296;-90
2022/04/30 06:37:04;;;;;;;27.10;18.63;;;;;;;16.38;74.87;99391.09;4998258;28;20221;-90
2022/04/30 06:39:30;;;;;;;25.37;18.33;;;;;;;15.85;74.62;99292.94;4994431;28;20172;-89
2022/04/30 06:41:56;;;;;;;24.93;17.70;;;;;;;14.75;74.13;99090.75;4996874;28;20200;-89
2022/04/30 06:44:21;;;;;;;25.30;17.80;;;;;;;16.15;72.59;99268.00;4994761;28;20199;-91
2022/04/30 06:46:47;;;;;;;25.80;18.83;;;;;;;18.75;75.12;99784.00;5005828;28;20179;-89
2022/04/30 06:49:13;;;;;;;25.77;17.50;;;;;;;16.52;72.29;99371.78;5017958;28;20202;-89
2022/04/30 06:51:38;;;;;;;27.30;18.10;;;;;;;15.62;72.88;99208.25;5016722;28;20167;-88
2022/04/30 06:57:11;;;;;;;22.97;16.90;;;;;;;19.13;71.01;99770.06;5000133;28;20294;-88
2022/04/30 06:59:42;;;;;;;21.20;15.67;;;;;;;17.69;68.64;99478.03;4993898;28;20180;-89
2022/04/30 07:02:17;;;;;;;21.07;14.90;;;;;;;18.69;65.35;99629.97;4994939;28;20203;-88
2022/04/30 07:04:43;;;;;;;18.67;13.77;;;;;;;17.47;66.46;99462.28;4995116;28;20266;-87
2022/04/30 07:07:09;;;;;;;20.17;13.90;;;;;;;17.05;64.65;99424.84;4994180;28;20779;-86
2022/04/30 07:09:35;;;;;;;21.20;14.53;;;;;;;18.67;66.01;99659.88;5000042;28;20159;-88
2022/04/30 07:12:06;;;;;;;18.13;12.90;;;;;;;18.97;64.59;99713.34;5016474;28;20236;-90
2022/04/30 07:14:37;;;;;;;17.97;13.50;;;;;;;16.05;65.28;99248.25;5015387;28;20178;-87
2022/04/30 07:17:07;;;;;;;19.27;13.30;;;;;;;16.78;64.88;99375.75;4997743;28;20650;-88
2022/04/30 07:19:33;;;;;;;18.80;13.73;;;;;;;15.67;66.47;99241.50;4998480;28;20203;-88
2022/04/30 07:21:59;;;;;;;21.23;13.60;;;;;;;16.14;65.57;99270.56;4996607;28;20242;-87
2022/04/30 07:24:24;;;;;;;25.47;17.37;;;;;;;16.55;64.36;99269.66;4999525;28;20174;-87
2022/04/30 07:26:50;;;;;;;18.83;13.90;;;;;;;17.04;64.05;99396.66;4997419;28;20191;-89
2022/04/30 07:29:16;;;;;;;22.33;14.50;;;;;;;17.15;64.98;99466.78;4994717;28;20179;-87
2022/04/30 07:31:41;;;;;;;19.53;14.40;;;;;;;14.92;65.89;99080.03;4997998;28;20167;-89
2022/04/30 07:34:09;;;;;;;21.47;14.40;;;;;;;17.15;66.05;99456.56;4996686;28;20551;-88
2022/04/30 07:36:36;;;;;;;19.90;15.10;;;;;;;18.02;65.55;99535.78;5000032;28;20581;-87
2022/04/30 07:39:02;;;;;;;20.87;14.93;;;;;;;17.20;64.36;99361.97;4999206;28;20172;-87
2022/04/30 07:41:27;;;;;;;21.13;15.13;;;;;;;17.70;62.43;99386.72;4998695;28;20203;-88
2022/04/30 07:43:53;;;;;;;19.70;15.27;;;;;;;17.42;61.84;99323.09;5000336;28;20254;-88
2022/04/30 07:46:18;;;;;;;20.73;14.07;;;;;;;19.04;62.17;99564.63;5000013;28;20249;-88
2022/04/30 07:48:44;;;;;;;18.73;13.67;;;;;;;17.94;61.25;99383.63;5000663;28;20267;-87
2022/04/30 07:51:18;;;;;;;20.13;14.67;;;;;;;18.74;58.76;99529.19;4999209;28;20703;-89
2022/04/30 07:53:45;;;;;;;20.70;14.27;;;;;;;18.07;60.20;99450.47;4998963;28;20174;-90
2022/04/30 07:56:12;;;;;;;19.47;13.53;;;;;;;20.20;60.08;99801.53;4999488;28;20171;-87
2022/04/30 07:58:38;;;;;;;17.90;12.90;;;;;;;18.92;58.21;99459.28;4995543;28;20619;-88
2022/04/30 08:01:04;;;;;;;19.60;13.73;;;;;;;20.89;56.90;99729.34;4980260;28;20200;-88
2022/04/30 08:03:29;;;;;;;18.27;13.57;;;;;;;19.33;55.98;99442.63;4978001;28;20195;-88
2022/04/30 08:05:54;;;;;;;17.90;13.37;;;;;;;19.26;54.46;99312.47;4996299;28;20648;-88
2022/04/30 08:08:20;;;;;;;19.27;13.80;;;;;;;18.88;54.47;99305.28;4982075;28;20633;-87
2022/04/30 08:10:45;;;;;;;16.63;12.83;;;;;;;18.75;55.60;99365.88;4994583;28;20175;-87
2022/04/30 08:13:11;;;;;;;20.50;13.60;;;;;;;19.57;53.36;99356.38;5005180;28;20160;-87
2022/04/30 08:15:43;;;;;;;18.80;13.93;;;;;;;21.44;52.02;99658.47;5001712;28;20198;-87
2022/04/30 08:18:09;;;;;;;17.07;13.47;;;;;;;19.59;53.25;99417.16;5001761;28;20174;-87
2022/04/30 08:20:37;;;;;;;20.30;14.70;;;;;;;19.48;52.34;99282.69;5000356;28;20197;-87
2022/04/30 08:23:04;;;;;;;18.23;14.00;;;;;;;19.00;51.60;99151.47;4999325;28;20274;-88
2022/04/30 08:25:29;;;;;;;17.07;13.63;;;;;;;19.80;51.01;99340.28;4998131;28;20575;-88
2022/04/30 08:27:55;;;;;;;17.97;13.23;;;;;;;20.40;50.12;99362.88;4999296;28;20254;-88
2022/04/30 08:30:20;;;;;;;17.60;13.27;;;;;;;19.68;49.73;99365.00;4998865;28;20185;-88
2022/04/30 08:32:47;;;;;;;16.90;12.70;;;;;;;20.85;51.05;99628.94;4998420;28;20172;-88
2022/04/30 08:35:13;;;;;;;15.53;12.43;;;;;;;21.29;50.91;99678.13;4995342;28;20206;-87
2022/04/30 08:37:38;;;;;;;17.73;12.70;;;;;;;19.51;51.16;99443.63;4987732;28;20199;-89
2022/04/30 08:40:04;;;;;;;19.23;13.13;;;;;;;19.10;52.14;99449.22;5000412;28;20175;-88
2022/04/30 08:42:30;;;;;;;16.80;13.27;;;;;;;19.68;53.66;99596.19;4998128;28;20302;-87
2022/04/30 08:44:56;;;;;;;15.70;12.40;;;;;;;20.12;51.41;99586.34;4997513;28;20191;-87
2022/04/30 08:47:21;;;;;;;18.73;12.60;;;;;;;18.22;50.95;99155.09;4997012;28;20179;-86
2022/04/30 08:49:48;;;;;;;15.77;12.37;;;;;;;20.50;48.30;99350.88;4997850;28;20632;-88
2022/04/30 08:52:15;;;;;;;15.03;12.13;;;;;;;19.47;46.25;99149.19;4996570;28;20542;-90
2022/04/30 08:54:41;;;;;;;13.67;11.30;;;;;;;21.49;44.80;99476.41;4998242;28;20170;-88
2022/04/30 08:57:07;;;;;;;15.73;11.73;;;;;;;20.59;47.04;99440.97;4999035;28;20168;-88
2022/04/30 08:59:32;;;;;;;15.33;11.80;;;;;;;19.95;46.79;99360.03;4994090;28;20209;-87
2022/04/30 09:01:58;;;;;;;15.97;11.73;;;;;;;22.41;45.63;99761.06;4982479;28;20207;-88
2022/04/30 09:04:26;;;;;;;14.17;11.77;;;;;;;22.46;46.28;99755.03;4980321;28;20300;-88
2022/04/30 09:06:55;;;;;;;13.40;11.13;;;;;;;19.80;46.05;99306.00;4994547;28;20692;-88
2022/04/30 09:09:25;;;;;;;14.80;11.00;;;;;;;20.06;46.75;99350.69;4993465;28;20199;-88
2022/04/30 09:11:53;;;;;;;14.83;11.20;;;;;;;22.16;46.25;99672.44;4993209;28;20183;-88
2022/04/30 09:14:27;;;;;;;13.43;10.67;;;;;;;21.83;46.80;99631.97;4993962;28;20186;-89
2022/04/30 09:17:07;;;;;;;15.03;10.50;;;;;;;22.30;45.91;99604.50;4995226;28;20175;-89
2022/04/30 09:19:52;;;;;;;15.20;11.37;;;;;;;22.60;44.77;99588.16;4994515;28;20270;-89
2022/04/30 09:22:28;;;;;;;14.57;10.40;;;;;;;23.86;43.10;99730.78;4994715;28;20301;-89
2022/04/30 09:24:53;;;;;;;12.30;9.10;;;;;;;21.56;43.19;99460.09;4993144;28;20203;-89
2022/04/30 09:27:19;;;;;;;13.37;10.07;;;;;;;22.38;45.61;99724.94;4977580;28;20208;-88
2022/04/30 09:29:45;;;;;;;15.93;10.53;;;;;;;20.45;46.75;99402.31;4973481;28;20617;-88
2022/04/30 09:32:22;;;;;;;12.63;10.13;;;;;;;21.73;46.29;99552.88;4975037;28;20173;-88
2022/04/30 09:37:41;;;;;;;19.93;10.30;;;;;;;23.11;44.81;99730.97;4975488;28;20191;-88
2022/04/30 09:40:21;;;;;;;13.73;10.33;;;;;;;22.58;45.02;99710.34;4974288;28;20272;-88
2022/04/30 09:42:47;;;;;;;11.90;9.77;;;;;;;21.09;45.92;99531.28;4977381;28;20199;-88
2022/04/30 09:45:48;;;;;;;14.07;10.00;;;;;;;22.55;45.77;99708.59;4975368;28;20721;-88
2022/04/30 09:53:58;;;;;;;11.73;9.37;;;;;;;22.04;44.41;99515.97;4973253;28;20340;-88
2022/04/30 09:56:44;;;;;;;9.50;8.40;;;;;;;23.37;43.23;99698.22;4973894;28;20199;-88
2022/04/30 09:59:14;;;;;;;11.17;9.30;;;;;;;23.28;43.46;99705.97;4957635;28;20183;-88
2022/04/30 10:01:41;;;;;;;11.00;8.30;;;;;;;22.30;43.35;99549.50;4972717;28;20227;-88
2022/04/30 10:04:12;;;;;;;11.37;9.00;;;;;;;23.46;42.63;99693.88;4972950;28;20175;-90
2022/04/30 10:06:42;;;;;;;10.00;8.33;;;;;;;23.37;42.90;99693.94;4955425;28;20232;-89
2022/04/30 10:09:10;;;;;;;10.53;8.93;;;;;;;19.03;44.33;99142.09;4954232;28;20200;-88
2022/04/30 10:11:56;;;;;;;10.87;8.60;;;;;;;20.43;45.39;99414.31;4953196;29;20657;-90
2022/04/30 10:14:44;;;;;;;9.10;7.83;;;;;;;21.51;44.39;99546.81;4952774;29;20255;-89
2022/04/30 10:17:14;;;;;;;10.77;7.70;;;;;;;20.45;44.11;99314.88;4955279;29;20571;-90
2022/04/30 10:19:41;;;;;;;9.17;8.27;;;;;;;19.82;45.50;99328.28;4954715;29;20189;-87
2022/04/30 10:22:14;;;;;;;10.23;8.37;;;;;;;20.15;44.76;99358.44;4964988;28;20230;-90
2022/04/30 10:24:46;;;;;;;10.07;7.57;;;;;;;21.99;43.66;99684.44;4975871;28;20172;-87
2022/04/30 10:27:13;;;;;;;7.57;6.77;;;;;;;21.50;42.40;99457.53;4974887;28;20682;-91
2022/04/30 10:29:52;;;;;;;7.77;6.30;;;;;;;21.97;42.54;99619.13;4987731;28;20297;-87
2022/04/30 10:32:32;;;;;;;10.23;6.60;;;;;;;20.05;44.09;99346.41;4993157;28;20167;-88
2022/04/30 10:34:58;;;;;;;9.60;6.93;;;;;;;20.91;44.04;99474.50;4992279;28;20190;-87
2022/04/30 10:37:34;;;;;;;8.37;6.77;;;;;;;20.76;43.55;99510.50;4993162;28;20179;-88
2022/04/30 10:40:01;;;;;;;8.67;6.63;;;;;;;22.11;43.13;99667.25;5016530;28;20202;-90
2022/04/30 10:42:32;;;;;;;8.77;6.60;;;;;;;21.54;42.82;99485.00;5015239;28;20199;-90
2022/04/30 10:44:58;;;;;;;12.13;7.00;;;;;;;19.62;43.45;99229.69;4997250;28;20178;-91
2022/04/30 10:47:25;;;;;;;7.87;6.77;;;;;;;20.46;44.13;99476.03;4996892;28;20234;-91
2022/04/30 10:49:50;;;;;;;8.80;6.70;;;;;;;19.92;43.94;99376.28;4997585;28;20210;-92
2022/04/30 10:52:25;;;;;;;10.23;6.73;;;;;;;19.89;43.78;99273.50;4999141;28;20176;-92
2022/04/30 10:54:54;;;;;;;8.47;5.93;;;;;;;20.23;43.23;99264.22;4998236;28;20183;-89
2022/04/30 10:57:20;;;;;;;7.13;6.20;;;;;;;21.99;42.34;99529.72;4997946;28;20203;-90
2022/04/30 10:59:55;;;;;;;7.23;6.20;;;;;;;22.82;42.31;99618.28;4994473;28;20218;-90
2022/04/30 11:02:21;;;;;;;6.70;6.10;;;;;;;22.63;42.68;99673.38;4995989;28;20199;-89
2022/04/30 11:04:46;;;;;;;11.07;5.97;;;;;;;19.52;42.88;99073.00;4996187;28;20155;-89
2022/04/30 11:07:13;;;;;;;7.07;5.90;;;;;;;20.36;41.81;99231.69;4990154;28;20231;-89
2022/04/30 11:09:43;;;;;;;7.33;6.57;;;;;;;20.66;41.74;99220.59;4990764;28;20184;-90
2022/04/30 11:12:14;;;;;;;7.40;5.70;;;;;;;23.15;41.53;99676.75;4998001;28;20254;-89
2022/04/30 11:14:49;;;;;;;6.53;5.30;;;;;;;19.86;40.45;99185.28;4997997;28;20302;-88
2022/04/30 11:17:15;;;;;;;7.53;5.27;;;;;;;20.23;41.38;99364.47;4997269;28;20175;-88
2022/04/30 11:19:42;;;;;;;6.60;5.50;;;;;;;19.96;40.58;99257.28;4997822;28;20171;-89
2022/04/30 11:22:13;;;;;;;7.70;5.57;;;;;;;21.50;41.33;99544.25;4995670;28;20207;-89
2022/04/30 11:24:41;;;;;;;6.57;5.27;;;;;;;20.89;40.89;99363.84;4995720;28;20234;-89
2022/04/30 11:27:08;;;;;;;6.83;5.23;;;;;;;21.51;40.29;99351.03;4997397;28;20168;-90
2022/04/30 11:29:47;;;;;;;5.67;5.10;;;;;;;22.19;39.43;99321.69;4985575;28;20263;-90
2022/04/30 11:32:19;;;;;;;5.87;5.20;;;;;;;22.96;38.63;99374.66;4979394;28;20171;-89
2022/04/30 11:34:45;;;;;;;6.93;4.90;;;;;;;23.56;36.81;99383.69;4977846;28;20173;-90
2022/04/30 11:37:10;;;;;;;6.20;4.70;;;;;;;22.44;36.47;99111.75;4983096;28;20242;-90
2022/04/30 11:39:35;;;;;;;6.15;4.75;;;;;;;23.97;35.82;99464.31;4980418;28;20615;-90
2022/04/30 11:42:01;;;;;;;5.03;4.53;;;;;;;22.72;36.06;99250.00;4979279;28;20227;-90
2022/04/30 11:44:30;;;;;;;5.72;5.10;;;;;;;23.58;36.73;99376.75;4979072;28;20197;-90
2022/04/30 11:46:55;;;;;;;5.32;4.65;;;;;;;23.09;35.60;99260.03;4979492;28;20238;-91
2022/04/30 11:49:26;;;;;;;6.75;5.05;;;;;;;25.40;35.91;99621.66;4985728;28;20172;-88
2022/04/30 11:51:55;;;;;;;5.63;5.03;;;;;;;22.21;36.28;99193.59;4991925;28;20644;-91